sensor_id;sensor_type;location;lat;lon;timestamp;P1;durP1;ratioP1;P2;durP2;ratioP2
66970;SDS011;53901;51.466;-2.588;2023-03-01T00:01:48;2.53;;;0.93;;
66970;SDS011;53901;51.466;-2.588;2023-03-01T00:04:13;1.02;;;0.80;;
66970;SDS011;53901;51.466;-2.588;2023-03-01T00:06:38;1.35;;;0.75;;
66970;SDS011;53901;51.466;-2.588;2023-03-01T00:09:04;1.27;;;0.70;;
66970;SDS011;53901;51.466;-2.588;2023-03-01T00:11:30;0.73;;;0.70;;
66970;SDS011;53901;51.466;-2.588;2023-03-01T00:13:57;0.90;;;0.70;;
66970;SDS011;53901;51.466;-2.588;2023-03-01T00:18:54;0.80;;;0.70;;
66970;SDS011;53901;51.466;-2.588;2023-03-01T00:21:20;1.90;;;0.60;;
66970;SDS011;53901;51.466;-2.588;2023-03-01T00:23:47;1.70;;;0.80;;
66970;SDS011;53901;51.466;-2.588;2023-03-01T00:26:16;8.13;;;0.80;;
66970;SDS011;53901;51.466;-2.588;2023-03-01T00:28:42;0.80;;;0.60;;
66970;SDS011;53901;51.466;-2.588;2023-03-01T00:31:10;1.83;;;0.70;;
66970;SDS011;53901;51.466;-2.588;2023-03-01T00:33:36;0.85;;;0.63;;
66970;SDS011;53901;51.466;-2.588;2023-03-01T00:36:02;1.25;;;0.50;;
66970;SDS011;53901;51.466;-2.588;2023-03-01T00:38:28;4.30;;;2.38;;
66970;SDS011;53901;51.466;-2.588;2023-03-01T00:40:54;1.20;;;0.73;;
66970;SDS011;53901;51.466;-2.588;2023-03-01T00:43:19;0.88;;;0.60;;
66970;SDS011;53901;51.466;-2.588;2023-03-01T00:45:45;0.77;;;0.50;;
66970;SDS011;53901;51.466;-2.588;2023-03-01T00:48:10;3.25;;;0.70;;
66970;SDS011;53901;51.466;-2.588;2023-03-01T00:50:35;2.30;;;0.60;;
66970;SDS011;53901;51.466;-2.588;2023-03-01T00:53:01;0.90;;;0.65;;
66970;SDS011;53901;51.466;-2.588;2023-03-01T00:55:26;1.25;;;0.60;;
66970;SDS011;53901;51.466;-2.588;2023-03-01T00:57:51;2.65;;;0.70;;
66970;SDS011;53901;51.466;-2.588;2023-03-01T01:00:17;1.77;;;0.73;;
66970;SDS011;53901;51.466;-2.588;2023-03-01T01:02:43;1.00;;;0.70;;
66970;SDS011;53901;51.466;-2.588;2023-03-01T01:05:09;2.75;;;0.70;;
66970;SDS011;53901;51.466;-2.588;2023-03-01T01:07:35;1.88;;;0.80;;
66970;SDS011;53901;51.466;-2.588;2023-03-01T01:10:00;1.40;;;0.75;;
66970;SDS011;53901;51.466;-2.588;2023-03-01T01:12:26;1.95;;;0.60;;
66970;SDS011;53901;51.466;-2.588;2023-03-01T01:14:51;3.15;;;0.80;;
66970;SDS011;53901;51.466;-2.588;2023-03-01T01:17:16;0.70;;;0.60;;
66970;SDS011;53901;51.466;-2.588;2023-03-01T01:19:42;0.60;;;0.50;;
66970;SDS011;53901;51.466;-2.588;2023-03-01T01:22:08;0.88;;;0.52;;
66970;SDS011;53901;51.466;-2.588;2023-03-01T01:24:33;0.57;;;0.50;;
66970;SDS011;53901;51.466;-2.588;2023-03-01T01:26:59;1.00;;;0.70;;
66970;SDS011;53901;51.466;-2.588;2023-03-01T01:29:24;0.70;;;0.50;;
66970;SDS011;53901;51.466;-2.588;2023-03-01T01:31:49;0.60;;;0.50;;
66970;SDS011;53901;51.466;-2.588;2023-03-01T01:34:16;0.75;;;0.60;;
66970;SDS011;53901;51.466;-2.588;2023-03-01T01:36:48;0.68;;;0.60;;
66970;SDS011;53901;51.466;-2.588;2023-03-01T01:39:19;2.33;;;0.68;;
66970;SDS011;53901;51.466;-2.588;2023-03-01T01:41:45;1.92;;;0.70;;
66970;SDS011;53901;51.466;-2.588;2023-03-01T01:49:44;2.90;;;0.80;;
66970;SDS011;53901;51.466;-2.588;2023-03-01T01:52:22;1.30;;;0.60;;
66970;SDS011;53901;51.466;-2.588;2023-03-01T01:54:51;1.50;;;0.70;;
66970;SDS011;53901;51.466;-2.588;2023-03-01T01:57:21;0.80;;;0.60;;
66970;SDS011;53901;51.466;-2.588;2023-03-01T01:59:53;2.25;;;0.70;;
66970;SDS011;53901;51.466;-2.588;2023-03-01T02:02:20;1.02;;;0.60;;
66970;SDS011;53901;51.466;-2.588;2023-03-01T02:04:46;1.63;;;0.65;;
66970;SDS011;53901;51.466;-2.588;2023-03-01T02:09:40;0.55;;;0.50;;
66970;SDS011;53901;51.466;-2.588;2023-03-01T02:12:07;1.13;;;0.65;;
66970;SDS011;53901;51.466;-2.588;2023-03-01T02:14:33;3.72;;;0.60;;
66970;SDS011;53901;51.466;-2.588;2023-03-01T02:16:58;1.00;;;0.50;;
66970;SDS011;53901;51.466;-2.588;2023-03-01T02:19:32;0.85;;;0.60;;
66970;SDS011;53901;51.466;-2.588;2023-03-01T02:22:27;2.33;;;0.70;;
66970;SDS011;53901;51.466;-2.588;2023-03-01T02:27:36;1.65;;;0.70;;
66970;SDS011;53901;51.466;-2.588;2023-03-01T02:30:21;1.30;;;0.60;;
66970;SDS011;53901;51.466;-2.588;2023-03-01T02:32:47;0.68;;;0.55;;
66970;SDS011;53901;51.466;-2.588;2023-03-01T02:35:14;0.90;;;0.70;;
66970;SDS011;53901;51.466;-2.588;2023-03-01T02:37:40;2.33;;;0.95;;
66970;SDS011;53901;51.466;-2.588;2023-03-01T02:40:08;1.98;;;0.70;;
66970;SDS011;53901;51.466;-2.588;2023-03-01T02:42:37;2.22;;;0.90;;
66970;SDS011;53901;51.466;-2.588;2023-03-01T02:45:08;1.55;;;0.85;;
66970;SDS011;53901;51.466;-2.588;2023-03-01T02:47:35;1.10;;;0.73;;
66970;SDS011;53901;51.466;-2.588;2023-03-01T02:50:01;1.00;;;0.70;;
66970;SDS011;53901;51.466;-2.588;2023-03-01T02:52:45;3.08;;;0.70;;
66970;SDS011;53901;51.466;-2.588;2023-03-01T02:55:14;1.75;;;0.90;;
66970;SDS011;53901;51.466;-2.588;2023-03-01T02:57:41;1.23;;;0.88;;
66970;SDS011;53901;51.466;-2.588;2023-03-01T03:00:12;1.40;;;0.90;;
66970;SDS011;53901;51.466;-2.588;2023-03-01T03:02:44;2.15;;;0.90;;
66970;SDS011;53901;51.466;-2.588;2023-03-01T03:05:15;2.85;;;0.80;;
66970;SDS011;53901;51.466;-2.588;2023-03-01T03:07:43;1.05;;;0.70;;
66970;SDS011;53901;51.466;-2.588;2023-03-01T03:10:18;2.53;;;0.98;;
66970;SDS011;53901;51.466;-2.588;2023-03-01T03:12:48;3.78;;;1.15;;
66970;SDS011;53901;51.466;-2.588;2023-03-01T03:15:24;5.57;;;1.10;;
66970;SDS011;53901;51.466;-2.588;2023-03-01T03:17:50;2.20;;;1.10;;
66970;SDS011;53901;51.466;-2.588;2023-03-01T03:20:17;3.13;;;1.27;;
66970;SDS011;53901;51.466;-2.588;2023-03-01T03:22:45;2.33;;;1.00;;
66970;SDS011;53901;51.466;-2.588;2023-03-01T03:25:15;3.45;;;1.20;;
66970;SDS011;53901;51.466;-2.588;2023-03-01T03:27:41;6.35;;;1.23;;
66970;SDS011;53901;51.466;-2.588;2023-03-01T03:30:09;2.17;;;1.10;;
66970;SDS011;53901;51.466;-2.588;2023-03-01T03:32:37;2.72;;;1.08;;
66970;SDS011;53901;51.466;-2.588;2023-03-01T03:35:04;1.45;;;1.00;;
66970;SDS011;53901;51.466;-2.588;2023-03-01T03:37:40;1.70;;;0.98;;
66970;SDS011;53901;51.466;-2.588;2023-03-01T03:40:24;1.65;;;0.93;;
66970;SDS011;53901;51.466;-2.588;2023-03-01T03:42:50;2.33;;;1.10;;
66970;SDS011;53901;51.466;-2.588;2023-03-01T03:45:16;2.10;;;0.90;;
66970;SDS011;53901;51.466;-2.588;2023-03-01T03:47:42;2.72;;;0.98;;
66970;SDS011;53901;51.466;-2.588;2023-03-01T03:50:12;2.85;;;0.90;;
66970;SDS011;53901;51.466;-2.588;2023-03-01T03:52:38;2.30;;;1.00;;
66970;SDS011;53901;51.466;-2.588;2023-03-01T03:55:04;2.83;;;1.08;;
66970;SDS011;53901;51.466;-2.588;2023-03-01T03:57:41;2.40;;;1.08;;
66970;SDS011;53901;51.466;-2.588;2023-03-01T04:00:08;1.45;;;0.90;;
66970;SDS011;53901;51.466;-2.588;2023-03-01T04:02:40;1.52;;;0.82;;
66970;SDS011;53901;51.466;-2.588;2023-03-01T04:05:06;2.95;;;0.90;;
66970;SDS011;53901;51.466;-2.588;2023-03-01T04:07:33;2.38;;;0.90;;
66970;SDS011;53901;51.466;-2.588;2023-03-01T04:09:59;3.20;;;0.90;;
66970;SDS011;53901;51.466;-2.588;2023-03-01T04:12:24;1.55;;;0.90;;
66970;SDS011;53901;51.466;-2.588;2023-03-01T04:14:50;0.93;;;0.68;;
66970;SDS011;53901;51.466;-2.588;2023-03-01T04:17:15;1.25;;;0.90;;
66970;SDS011;53901;51.466;-2.588;2023-03-01T04:19:41;2.45;;;0.73;;
66970;SDS011;53901;51.466;-2.588;2023-03-01T04:22:09;1.65;;;0.80;;
66970;SDS011;53901;51.466;-2.588;2023-03-01T04:24:36;2.88;;;0.82;;
66970;SDS011;53901;51.466;-2.588;2023-03-01T04:27:01;3.13;;;0.90;;
66970;SDS011;53901;51.466;-2.588;2023-03-01T04:29:27;1.92;;;0.98;;
66970;SDS011;53901;51.466;-2.588;2023-03-01T04:31:52;0.73;;;0.60;;
66970;SDS011;53901;51.466;-2.588;2023-03-01T04:34:18;2.10;;;0.88;;
66970;SDS011;53901;51.466;-2.588;2023-03-01T04:36:43;1.73;;;0.82;;
66970;SDS011;53901;51.466;-2.588;2023-03-01T04:39:09;1.92;;;0.88;;
66970;SDS011;53901;51.466;-2.588;2023-03-01T04:41:37;2.15;;;0.95;;
66970;SDS011;53901;51.466;-2.588;2023-03-01T04:44:04;2.03;;;1.00;;
66970;SDS011;53901;51.466;-2.588;2023-03-01T04:46:30;3.45;;;1.10;;
66970;SDS011;53901;51.466;-2.588;2023-03-01T04:48:55;1.67;;;1.02;;
66970;SDS011;53901;51.466;-2.588;2023-03-01T04:51:20;0.93;;;0.80;;
66970;SDS011;53901;51.466;-2.588;2023-03-01T04:53:46;1.60;;;0.90;;
66970;SDS011;53901;51.466;-2.588;2023-03-01T04:56:12;1.92;;;1.00;;
66970;SDS011;53901;51.466;-2.588;2023-03-01T04:58:41;1.73;;;1.05;;
66970;SDS011;53901;51.466;-2.588;2023-03-01T05:01:13;7.88;;;1.30;;
66970;SDS011;53901;51.466;-2.588;2023-03-01T05:03:48;2.55;;;1.60;;
66970;SDS011;53901;51.466;-2.588;2023-03-01T05:06:16;2.47;;;1.55;;
66970;SDS011;53901;51.466;-2.588;2023-03-01T05:08:43;2.05;;;1.52;;
66970;SDS011;53901;51.466;-2.588;2023-03-01T05:11:09;2.92;;;1.58;;
66970;SDS011;53901;51.466;-2.588;2023-03-01T05:13:35;3.38;;;1.73;;
66970;SDS011;53901;51.466;-2.588;2023-03-01T05:16:03;2.30;;;1.40;;
66970;SDS011;53901;51.466;-2.588;2023-03-01T05:18:29;2.30;;;1.30;;
66970;SDS011;53901;51.466;-2.588;2023-03-01T05:21:01;2.97;;;1.60;;
66970;SDS011;53901;51.466;-2.588;2023-03-01T05:23:31;3.20;;;1.85;;
66970;SDS011;53901;51.466;-2.588;2023-03-01T05:25:58;2.28;;;1.80;;
66970;SDS011;53901;51.466;-2.588;2023-03-01T05:28:24;2.47;;;1.70;;
66970;SDS011;53901;51.466;-2.588;2023-03-01T05:30:51;3.08;;;1.70;;
66970;SDS011;53901;51.466;-2.588;2023-03-01T05:33:16;3.75;;;1.90;;
66970;SDS011;53901;51.466;-2.588;2023-03-01T05:35:43;4.15;;;1.90;;
66970;SDS011;53901;51.466;-2.588;2023-03-01T05:38:09;5.93;;;2.20;;
66970;SDS011;53901;51.466;-2.588;2023-03-01T05:40:38;5.32;;;2.13;;
66970;SDS011;53901;51.466;-2.588;2023-03-01T05:43:04;3.35;;;2.08;;
66970;SDS011;53901;51.466;-2.588;2023-03-01T05:45:30;5.63;;;2.30;;
66970;SDS011;53901;51.466;-2.588;2023-03-01T05:47:57;4.00;;;2.30;;
66970;SDS011;53901;51.466;-2.588;2023-03-01T05:50:24;5.07;;;2.40;;
66970;SDS011;53901;51.466;-2.588;2023-03-01T05:52:52;3.65;;;2.08;;
66970;SDS011;53901;51.466;-2.588;2023-03-01T05:55:23;5.57;;;2.40;;
66970;SDS011;53901;51.466;-2.588;2023-03-01T05:57:48;5.35;;;2.45;;
66970;SDS011;53901;51.466;-2.588;2023-03-01T06:00:15;3.40;;;2.30;;
66970;SDS011;53901;51.466;-2.588;2023-03-01T06:02:41;3.47;;;2.10;;
66970;SDS011;53901;51.466;-2.588;2023-03-01T06:05:08;4.22;;;2.70;;
66970;SDS011;53901;51.466;-2.588;2023-03-01T06:07:34;3.75;;;1.98;;
66970;SDS011;53901;51.466;-2.588;2023-03-01T06:10:00;2.90;;;2.08;;
66970;SDS011;53901;51.466;-2.588;2023-03-01T06:12:25;3.67;;;2.15;;
66970;SDS011;53901;51.466;-2.588;2023-03-01T06:14:51;7.47;;;2.40;;
66970;SDS011;53901;51.466;-2.588;2023-03-01T06:17:16;3.45;;;2.10;;
66970;SDS011;53901;51.466;-2.588;2023-03-01T06:19:41;3.53;;;2.28;;
66970;SDS011;53901;51.466;-2.588;2023-03-01T06:22:07;3.55;;;2.33;;
66970;SDS011;53901;51.466;-2.588;2023-03-01T06:24:33;4.32;;;2.40;;
66970;SDS011;53901;51.466;-2.588;2023-03-01T06:26:58;4.15;;;2.55;;
66970;SDS011;53901;51.466;-2.588;2023-03-01T06:29:24;6.60;;;3.35;;
66970;SDS011;53901;51.466;-2.588;2023-03-01T06:31:49;5.97;;;3.00;;
66970;SDS011;53901;51.466;-2.588;2023-03-01T06:34:14;4.32;;;2.92;;
66970;SDS011;53901;51.466;-2.588;2023-03-01T06:36:40;6.05;;;3.60;;
66970;SDS011;53901;51.466;-2.588;2023-03-01T06:39:05;5.78;;;3.25;;
66970;SDS011;53901;51.466;-2.588;2023-03-01T06:41:31;6.03;;;3.70;;
66970;SDS011;53901;51.466;-2.588;2023-03-01T06:43:58;5.45;;;3.42;;
66970;SDS011;53901;51.466;-2.588;2023-03-01T06:46:24;8.95;;;3.90;;
66970;SDS011;53901;51.466;-2.588;2023-03-01T06:48:49;6.40;;;3.85;;
66970;SDS011;53901;51.466;-2.588;2023-03-01T06:51:15;6.03;;;3.38;;
66970;SDS011;53901;51.466;-2.588;2023-03-01T06:53:40;6.97;;;3.13;;
66970;SDS011;53901;51.466;-2.588;2023-03-01T06:56:05;5.50;;;3.13;;
66970;SDS011;53901;51.466;-2.588;2023-03-01T06:58:31;6.47;;;3.70;;
66970;SDS011;53901;51.466;-2.588;2023-03-01T07:00:56;6.55;;;3.00;;
66970;SDS011;53901;51.466;-2.588;2023-03-01T07:03:22;6.15;;;3.13;;
66970;SDS011;53901;51.466;-2.588;2023-03-01T07:05:48;7.85;;;2.92;;
66970;SDS011;53901;51.466;-2.588;2023-03-01T07:08:14;5.75;;;2.60;;
66970;SDS011;53901;51.466;-2.588;2023-03-01T07:10:40;9.32;;;3.78;;
66970;SDS011;53901;51.466;-2.588;2023-03-01T07:13:05;7.30;;;3.00;;
66970;SDS011;53901;51.466;-2.588;2023-03-01T07:15:31;5.55;;;2.63;;
66970;SDS011;53901;51.466;-2.588;2023-03-01T07:17:57;5.13;;;2.83;;
66970;SDS011;53901;51.466;-2.588;2023-03-01T07:20:23;6.13;;;2.70;;
66970;SDS011;53901;51.466;-2.588;2023-03-01T07:22:50;6.10;;;3.10;;
66970;SDS011;53901;51.466;-2.588;2023-03-01T07:25:18;8.95;;;3.20;;
66970;SDS011;53901;51.466;-2.588;2023-03-01T07:27:43;4.80;;;2.55;;
66970;SDS011;53901;51.466;-2.588;2023-03-01T07:30:14;5.35;;;2.67;;
66970;SDS011;53901;51.466;-2.588;2023-03-01T07:32:39;4.25;;;2.20;;
66970;SDS011;53901;51.466;-2.588;2023-03-01T07:35:05;9.55;;;2.67;;
66970;SDS011;53901;51.466;-2.588;2023-03-01T07:37:31;6.15;;;2.40;;
66970;SDS011;53901;51.466;-2.588;2023-03-01T07:39:56;5.15;;;2.30;;
66970;SDS011;53901;51.466;-2.588;2023-03-01T07:42:22;4.05;;;2.00;;
66970;SDS011;53901;51.466;-2.588;2023-03-01T07:44:48;4.40;;;2.13;;
66970;SDS011;53901;51.466;-2.588;2023-03-01T07:47:13;4.57;;;2.13;;
66970;SDS011;53901;51.466;-2.588;2023-03-01T07:49:39;4.10;;;2.10;;
66970;SDS011;53901;51.466;-2.588;2023-03-01T07:52:04;4.40;;;1.88;;
66970;SDS011;53901;51.466;-2.588;2023-03-01T07:54:30;2.58;;;1.88;;
66970;SDS011;53901;51.466;-2.588;2023-03-01T07:56:56;4.88;;;1.90;;
66970;SDS011;53901;51.466;-2.588;2023-03-01T07:59:21;3.85;;;1.67;;
66970;SDS011;53901;51.466;-2.588;2023-03-01T08:01:48;6.25;;;1.60;;
66970;SDS011;53901;51.466;-2.588;2023-03-01T08:04:14;2.58;;;1.65;;
66970;SDS011;53901;51.466;-2.588;2023-03-01T08:06:39;10.85;;;5.10;;
66970;SDS011;53901;51.466;-2.588;2023-03-01T08:09:04;3.97;;;1.75;;
66970;SDS011;53901;51.466;-2.588;2023-03-01T08:11:30;3.15;;;1.38;;
66970;SDS011;53901;51.466;-2.588;2023-03-01T08:13:55;2.78;;;1.30;;
66970;SDS011;53901;51.466;-2.588;2023-03-01T08:16:22;8.43;;;1.88;;
66970;SDS011;53901;51.466;-2.588;2023-03-01T08:18:48;2.72;;;1.55;;
66970;SDS011;53901;51.466;-2.588;2023-03-01T08:21:14;3.70;;;1.67;;
66970;SDS011;53901;51.466;-2.588;2023-03-01T08:23:41;3.78;;;1.77;;
66970;SDS011;53901;51.466;-2.588;2023-03-01T08:26:09;5.53;;;1.98;;
66970;SDS011;53901;51.466;-2.588;2023-03-01T08:28:45;4.63;;;1.67;;
66970;SDS011;53901;51.466;-2.588;2023-03-01T08:31:21;3.72;;;1.75;;
66970;SDS011;53901;51.466;-2.588;2023-03-01T08:33:48;3.75;;;1.35;;
66970;SDS011;53901;51.466;-2.588;2023-03-01T08:36:20;2.60;;;1.02;;
66970;SDS011;53901;51.466;-2.588;2023-03-01T08:38:46;1.98;;;1.27;;
66970;SDS011;53901;51.466;-2.588;2023-03-01T08:41:12;2.00;;;1.20;;
66970;SDS011;53901;51.466;-2.588;2023-03-01T08:43:37;3.10;;;1.45;;
66970;SDS011;53901;51.466;-2.588;2023-03-01T08:46:02;4.65;;;1.50;;
66970;SDS011;53901;51.466;-2.588;2023-03-01T08:48:28;3.70;;;1.27;;
66970;SDS011;53901;51.466;-2.588;2023-03-01T08:50:54;3.55;;;1.30;;
66970;SDS011;53901;51.466;-2.588;2023-03-01T08:53:19;3.55;;;1.98;;
66970;SDS011;53901;51.466;-2.588;2023-03-01T08:55:45;2.90;;;1.75;;
66970;SDS011;53901;51.466;-2.588;2023-03-01T08:58:10;4.43;;;1.92;;
66970;SDS011;53901;51.466;-2.588;2023-03-01T09:00:36;4.10;;;1.83;;
66970;SDS011;53901;51.466;-2.588;2023-03-01T09:03:01;5.00;;;2.45;;
66970;SDS011;53901;51.466;-2.588;2023-03-01T09:05:27;5.32;;;2.08;;
66970;SDS011;53901;51.466;-2.588;2023-03-01T09:07:53;4.15;;;2.60;;
66970;SDS011;53901;51.466;-2.588;2023-03-01T09:10:18;6.93;;;2.63;;
66970;SDS011;53901;51.466;-2.588;2023-03-01T09:12:43;5.40;;;2.47;;
66970;SDS011;53901;51.466;-2.588;2023-03-01T09:15:09;6.88;;;2.70;;
66970;SDS011;53901;51.466;-2.588;2023-03-01T09:17:35;4.13;;;2.47;;
66970;SDS011;53901;51.466;-2.588;2023-03-01T09:20:01;4.85;;;2.47;;
66970;SDS011;53901;51.466;-2.588;2023-03-01T09:22:26;5.53;;;2.38;;
66970;SDS011;53901;51.466;-2.588;2023-03-01T09:24:52;4.72;;;2.22;;
66970;SDS011;53901;51.466;-2.588;2023-03-01T09:27:17;4.78;;;2.50;;
66970;SDS011;53901;51.466;-2.588;2023-03-01T09:29:44;5.18;;;2.30;;
66970;SDS011;53901;51.466;-2.588;2023-03-01T09:32:09;8.10;;;3.33;;
66970;SDS011;53901;51.466;-2.588;2023-03-01T09:34:35;5.75;;;2.60;;
66970;SDS011;53901;51.466;-2.588;2023-03-01T09:37:23;5.78;;;2.40;;
66970;SDS011;53901;51.466;-2.588;2023-03-01T09:39:48;4.50;;;2.42;;
66970;SDS011;53901;51.466;-2.588;2023-03-01T09:42:14;8.15;;;2.30;;
66970;SDS011;53901;51.466;-2.588;2023-03-01T09:47:20;5.10;;;2.28;;
66970;SDS011;53901;51.466;-2.588;2023-03-01T09:49:58;3.78;;;1.85;;
66970;SDS011;53901;51.466;-2.588;2023-03-01T09:52:41;5.07;;;2.55;;
66970;SDS011;53901;51.466;-2.588;2023-03-01T09:55:13;6.07;;;2.40;;
66970;SDS011;53901;51.466;-2.588;2023-03-01T09:57:43;4.00;;;1.80;;
66970;SDS011;53901;51.466;-2.588;2023-03-01T10:03:01;4.38;;;1.83;;
66970;SDS011;53901;51.466;-2.588;2023-03-01T10:10:39;5.18;;;2.30;;
66970;SDS011;53901;51.466;-2.588;2023-03-01T10:16:01;2.92;;;1.58;;
66970;SDS011;53901;51.466;-2.588;2023-03-01T10:18:31;3.28;;;1.73;;
66970;SDS011;53901;51.466;-2.588;2023-03-01T10:23:31;2.75;;;1.50;;
66970;SDS011;53901;51.466;-2.588;2023-03-01T10:28:47;3.22;;;1.80;;
66970;SDS011;53901;51.466;-2.588;2023-03-01T10:31:22;2.85;;;1.30;;
66970;SDS011;53901;51.466;-2.588;2023-03-01T10:33:52;2.03;;;1.20;;
66970;SDS011;53901;51.466;-2.588;2023-03-01T10:36:20;3.25;;;1.58;;
66970;SDS011;53901;51.466;-2.588;2023-03-01T10:38:51;1.90;;;1.08;;
66970;SDS011;53901;51.466;-2.588;2023-03-01T10:41:22;2.70;;;1.65;;
66970;SDS011;53901;51.466;-2.588;2023-03-01T10:43:57;5.32;;;1.55;;
66970;SDS011;53901;51.466;-2.588;2023-03-01T10:46:26;2.53;;;1.40;;
66970;SDS011;53901;51.466;-2.588;2023-03-01T10:49:07;2.00;;;1.40;;
66970;SDS011;53901;51.466;-2.588;2023-03-01T10:51:48;2.70;;;1.58;;
66970;SDS011;53901;51.466;-2.588;2023-03-01T10:54:31;2.72;;;1.30;;
66970;SDS011;53901;51.466;-2.588;2023-03-01T10:57:01;2.72;;;1.60;;
66970;SDS011;53901;51.466;-2.588;2023-03-01T10:59:29;5.07;;;2.67;;
66970;SDS011;53901;51.466;-2.588;2023-03-01T11:05:13;3.83;;;2.50;;
66970;SDS011;53901;51.466;-2.588;2023-03-01T11:07:47;5.85;;;2.20;;
66970;SDS011;53901;51.466;-2.588;2023-03-01T11:10:18;2.53;;;1.70;;
66970;SDS011;53901;51.466;-2.588;2023-03-01T11:12:45;3.33;;;1.88;;
66970;SDS011;53901;51.466;-2.588;2023-03-01T11:15:19;3.05;;;1.58;;
66970;SDS011;53901;51.466;-2.588;2023-03-01T11:17:49;2.75;;;1.67;;
66970;SDS011;53901;51.466;-2.588;2023-03-01T11:20:18;3.50;;;1.45;;
66970;SDS011;53901;51.466;-2.588;2023-03-01T11:23:05;4.13;;;2.15;;
66970;SDS011;53901;51.466;-2.588;2023-03-01T11:25:35;4.22;;;2.03;;
66970;SDS011;53901;51.466;-2.588;2023-03-01T11:28:03;11.73;;;5.97;;
66970;SDS011;53901;51.466;-2.588;2023-03-01T11:33:03;3.08;;;1.83;;
66970;SDS011;53901;51.466;-2.588;2023-03-01T11:35:36;3.65;;;1.60;;
66970;SDS011;53901;51.466;-2.588;2023-03-01T11:40:56;2.85;;;1.60;;
66970;SDS011;53901;51.466;-2.588;2023-03-01T11:49:30;4.63;;;1.90;;
66970;SDS011;53901;51.466;-2.588;2023-03-01T12:10:37;4.30;;;1.92;;
66970;SDS011;53901;51.466;-2.588;2023-03-01T12:13:19;2.78;;;1.58;;
66970;SDS011;53901;51.466;-2.588;2023-03-01T12:21:09;3.65;;;1.92;;
66970;SDS011;53901;51.466;-2.588;2023-03-01T12:29:28;4.38;;;2.22;;
66970;SDS011;53901;51.466;-2.588;2023-03-01T12:32:17;4.55;;;2.13;;
66970;SDS011;53901;51.466;-2.588;2023-03-01T12:40:13;4.18;;;2.55;;
66970;SDS011;53901;51.466;-2.588;2023-03-01T12:50:53;8.10;;;2.80;;
66970;SDS011;53901;51.466;-2.588;2023-03-01T12:53:21;5.05;;;2.70;;
66970;SDS011;53901;51.466;-2.588;2023-03-01T12:55:49;6.57;;;3.15;;
66970;SDS011;53901;51.466;-2.588;2023-03-01T13:01:08;5.68;;;3.45;;
66970;SDS011;53901;51.466;-2.588;2023-03-01T13:06:47;4.95;;;3.15;;
66970;SDS011;53901;51.466;-2.588;2023-03-01T13:09:25;5.53;;;3.20;;
66970;SDS011;53901;51.466;-2.588;2023-03-01T13:15:28;7.72;;;3.33;;
66970;SDS011;53901;51.466;-2.588;2023-03-01T13:17:55;4.85;;;3.15;;
66970;SDS011;53901;51.466;-2.588;2023-03-01T13:21:04;4.43;;;3.00;;
66970;SDS011;53901;51.466;-2.588;2023-03-01T13:31:11;6.22;;;2.92;;
66970;SDS011;53901;51.466;-2.588;2023-03-01T13:33:55;4.93;;;3.17;;
66970;SDS011;53901;51.466;-2.588;2023-03-01T13:38:56;3.45;;;2.65;;
66970;SDS011;53901;51.466;-2.588;2023-03-01T13:49:41;4.93;;;2.67;;
66970;SDS011;53901;51.466;-2.588;2023-03-01T13:54:54;7.57;;;3.10;;
66970;SDS011;53901;51.466;-2.588;2023-03-01T13:57:25;6.63;;;3.40;;
66970;SDS011;53901;51.466;-2.588;2023-03-01T13:59:53;6.30;;;2.80;;
66970;SDS011;53901;51.466;-2.588;2023-03-01T14:02:18;4.85;;;2.60;;
66970;SDS011;53901;51.466;-2.588;2023-03-01T14:04:44;7.10;;;2.83;;
66970;SDS011;53901;51.466;-2.588;2023-03-01T14:07:22;3.53;;;2.45;;
66970;SDS011;53901;51.466;-2.588;2023-03-01T14:09:52;10.70;;;3.75;;
66970;SDS011;53901;51.466;-2.588;2023-03-01T14:17:43;5.07;;;2.58;;
66970;SDS011;53901;51.466;-2.588;2023-03-01T14:22:38;5.53;;;2.40;;
66970;SDS011;53901;51.466;-2.588;2023-03-01T14:25:16;6.97;;;2.50;;
66970;SDS011;53901;51.466;-2.588;2023-03-01T14:28:00;7.13;;;2.65;;
66970;SDS011;53901;51.466;-2.588;2023-03-01T14:30:32;5.78;;;2.90;;
66970;SDS011;53901;51.466;-2.588;2023-03-01T14:33:01;4.65;;;2.78;;
66970;SDS011;53901;51.466;-2.588;2023-03-01T14:35:30;4.75;;;2.38;;
66970;SDS011;53901;51.466;-2.588;2023-03-01T14:37:57;10.23;;;5.15;;
66970;SDS011;53901;51.466;-2.588;2023-03-01T14:42:53;4.15;;;2.33;;
66970;SDS011;53901;51.466;-2.588;2023-03-01T14:45:22;5.97;;;2.70;;
66970;SDS011;53901;51.466;-2.588;2023-03-01T14:47:50;4.75;;;2.70;;
66970;SDS011;53901;51.466;-2.588;2023-03-01T14:50:24;12.90;;;2.83;;
66970;SDS011;53901;51.466;-2.588;2023-03-01T14:52:52;7.43;;;3.28;;
66970;SDS011;53901;51.466;-2.588;2023-03-01T14:55:20;9.60;;;3.20;;
66970;SDS011;53901;51.466;-2.588;2023-03-01T14:57:51;6.80;;;2.58;;
66970;SDS011;53901;51.466;-2.588;2023-03-01T15:00:24;4.45;;;2.10;;
66970;SDS011;53901;51.466;-2.588;2023-03-01T15:02:52;3.67;;;2.50;;
66970;SDS011;53901;51.466;-2.588;2023-03-01T15:05:28;4.13;;;2.50;;
66970;SDS011;53901;51.466;-2.588;2023-03-01T15:07:55;3.10;;;1.95;;
66970;SDS011;53901;51.466;-2.588;2023-03-01T15:10:25;4.32;;;2.33;;
66970;SDS011;53901;51.466;-2.588;2023-03-01T15:12:51;4.32;;;2.50;;
66970;SDS011;53901;51.466;-2.588;2023-03-01T15:17:59;7.53;;;2.50;;
66970;SDS011;53901;51.466;-2.588;2023-03-01T15:20:46;4.35;;;2.15;;
66970;SDS011;53901;51.466;-2.588;2023-03-01T15:23:20;6.93;;;1.95;;
66970;SDS011;53901;51.466;-2.588;2023-03-01T15:25:53;4.90;;;2.60;;
66970;SDS011;53901;51.466;-2.588;2023-03-01T15:28:23;4.45;;;2.30;;
66970;SDS011;53901;51.466;-2.588;2023-03-01T15:30:52;4.80;;;2.00;;
66970;SDS011;53901;51.466;-2.588;2023-03-01T15:33:37;4.75;;;2.30;;
66970;SDS011;53901;51.466;-2.588;2023-03-01T15:36:49;5.30;;;2.40;;
66970;SDS011;53901;51.466;-2.588;2023-03-01T15:38:57;5.07;;;2.22;;
66970;SDS011;53901;51.466;-2.588;2023-03-01T15:41:31;5.68;;;2.20;;
66970;SDS011;53901;51.466;-2.588;2023-03-01T15:44:14;6.75;;;3.30;;
66970;SDS011;53901;51.466;-2.588;2023-03-01T15:46:50;5.50;;;2.30;;
66970;SDS011;53901;51.466;-2.588;2023-03-01T15:52:01;4.35;;;2.25;;
66970;SDS011;53901;51.466;-2.588;2023-03-01T15:54:27;6.00;;;2.67;;
66970;SDS011;53901;51.466;-2.588;2023-03-01T15:56:53;3.53;;;1.98;;
66970;SDS011;53901;51.466;-2.588;2023-03-01T15:59:19;6.10;;;2.30;;
66970;SDS011;53901;51.466;-2.588;2023-03-01T16:01:44;5.50;;;2.80;;
66970;SDS011;53901;51.466;-2.588;2023-03-01T16:04:11;4.05;;;2.28;;
66970;SDS011;53901;51.466;-2.588;2023-03-01T16:06:45;4.95;;;2.40;;
66970;SDS011;53901;51.466;-2.588;2023-03-01T16:09:12;5.38;;;2.45;;
66970;SDS011;53901;51.466;-2.588;2023-03-01T16:11:37;9.43;;;2.60;;
66970;SDS011;53901;51.466;-2.588;2023-03-01T16:14:04;4.40;;;2.50;;
66970;SDS011;53901;51.466;-2.588;2023-03-01T16:16:30;4.35;;;2.60;;
66970;SDS011;53901;51.466;-2.588;2023-03-01T16:18:55;10.77;;;2.70;;
66970;SDS011;53901;51.466;-2.588;2023-03-01T16:21:22;4.15;;;2.67;;
66970;SDS011;53901;51.466;-2.588;2023-03-01T16:23:49;9.18;;;3.00;;
66970;SDS011;53901;51.466;-2.588;2023-03-01T16:26:16;5.72;;;3.05;;
66970;SDS011;53901;51.466;-2.588;2023-03-01T16:28:42;9.13;;;3.58;;
66970;SDS011;53901;51.466;-2.588;2023-03-01T16:31:07;5.93;;;3.30;;
66970;SDS011;53901;51.466;-2.588;2023-03-01T16:33:33;6.93;;;3.38;;
66970;SDS011;53901;51.466;-2.588;2023-03-01T16:36:00;10.57;;;3.50;;
66970;SDS011;53901;51.466;-2.588;2023-03-01T16:38:27;8.07;;;3.58;;
66970;SDS011;53901;51.466;-2.588;2023-03-01T16:40:53;7.85;;;3.08;;
66970;SDS011;53901;51.466;-2.588;2023-03-01T16:43:18;7.15;;;3.10;;
66970;SDS011;53901;51.466;-2.588;2023-03-01T16:45:44;7.68;;;3.65;;
66970;SDS011;53901;51.466;-2.588;2023-03-01T16:48:10;6.15;;;3.47;;
66970;SDS011;53901;51.466;-2.588;2023-03-01T16:50:36;6.82;;;2.83;;
66970;SDS011;53901;51.466;-2.588;2023-03-01T16:53:01;6.03;;;3.42;;
66970;SDS011;53901;51.466;-2.588;2023-03-01T16:55:27;4.93;;;3.25;;
66970;SDS011;53901;51.466;-2.588;2023-03-01T16:57:53;6.95;;;3.55;;